createdAt,value
2018-02-08T00:00:56.670Z,24.40
2018-02-08T00:03:24.199Z,23.97
2018-02-08T00:05:52.553Z,27.63
2018-02-08T00:08:20.862Z,26.50
2018-02-08T00:10:49.280Z,25.80
2018-02-08T00:13:16.805Z,27.20
2018-02-08T00:15:44.349Z,26.37
2018-02-08T00:18:11.879Z,26.57
2018-02-08T00:20:39.401Z,26.40
2018-02-08T00:23:06.953Z,25.10
2018-02-08T00:25:34.565Z,27.60
2018-02-08T00:28:02.077Z,25.90
2018-02-08T00:30:30.045Z,28.90
2018-02-08T00:32:57.638Z,24.47
2018-02-08T00:35:25.247Z,26.40
2018-02-08T00:37:53.022Z,27.03
2018-02-08T00:40:20.659Z,26.63
2018-02-08T00:42:48.438Z,27.30
2018-02-08T00:45:16.206Z,27.00
2018-02-08T00:47:43.801Z,26.27
2018-02-08T00:50:11.400Z,29.20
2018-02-08T00:52:39.097Z,25.60
2018-02-08T00:55:06.789Z,28.50
2018-02-08T00:57:34.311Z,25.37
2018-02-08T01:00:01.932Z,27.60
2018-02-08T01:02:30.314Z,26.83
2018-02-08T01:04:57.842Z,25.17
2018-02-08T01:07:27.042Z,26.10
2018-02-08T01:09:58.654Z,24.93
2018-02-08T01:12:27.424Z,24.70
2018-02-08T01:14:54.955Z,29.20
2018-02-08T01:17:22.671Z,25.67
2018-02-08T01:19:51.002Z,25.93
2018-02-08T01:22:18.533Z,27.10
2018-02-08T01:24:46.287Z,26.20
2018-02-08T01:27:13.987Z,27.53
2018-02-08T01:29:42.470Z,28.27
2018-02-08T01:32:10.164Z,26.40
2018-02-08T01:34:37.713Z,26.03
2018-02-08T01:37:05.230Z,28.17
2018-02-08T01:39:33.325Z,27.40
2018-02-08T01:42:00.864Z,26.43
2018-02-08T01:44:28.390Z,28.77
2018-02-08T01:46:56.682Z,28.03
2018-02-08T01:49:46.779Z,27.90
2018-02-08T01:52:14.428Z,25.90
2018-02-08T01:54:42.066Z,27.17
2018-02-08T01:57:09.606Z,27.10
2018-02-08T01:59:37.139Z,27.17
2018-02-08T02:02:04.674Z,25.70
2018-02-08T02:04:32.233Z,30.57
2018-02-08T02:06:59.765Z,27.57
2018-02-08T02:09:27.305Z,26.27
2018-02-08T02:11:54.862Z,28.57
2018-02-08T02:14:22.562Z,28.63
2018-02-08T02:16:50.076Z,27.13
2018-02-08T02:19:18.403Z,29.37
2018-02-08T02:21:51.575Z,29.77
2018-02-08T02:24:19.129Z,26.83
2018-02-08T02:26:46.655Z,26.80
2018-02-08T02:29:14.181Z,25.77
2018-02-08T02:31:44.565Z,25.80
2018-02-08T02:34:12.122Z,27.00
2018-02-08T02:36:41.349Z,27.13
2018-02-08T02:39:08.908Z,25.67
2018-02-08T02:41:36.430Z,26.90
2018-02-08T02:44:03.961Z,27.27
2018-02-08T02:46:31.529Z,26.70
2018-02-08T02:48:59.048Z,27.57
2018-02-08T02:51:26.696Z,25.57
2018-02-08T02:53:54.690Z,26.70
2018-02-08T02:56:23.265Z,29.50
2018-02-08T02:58:50.804Z,28.97
2018-02-08T03:01:18.408Z,27.30
2018-02-08T03:03:45.967Z,25.47
2018-02-08T03:06:13.506Z,28.33
2018-02-08T03:08:41.067Z,27.53
2018-02-08T03:11:09.361Z,26.80
2018-02-08T03:13:37.663Z,26.70
2018-02-08T03:16:05.477Z,26.93
2018-02-08T03:18:32.992Z,27.10
2018-02-08T03:21:00.521Z,24.67
2018-02-08T03:23:28.091Z,27.90
2018-02-08T03:25:55.624Z,28.57
2018-02-08T03:28:23.837Z,26.93
2018-02-08T03:30:52.049Z,27.63
2018-02-08T03:33:20.341Z,29.57
2018-02-08T03:35:47.867Z,26.37
2018-02-08T03:38:15.419Z,28.70
2018-02-08T03:40:42.953Z,27.63
2018-02-08T03:43:11.324Z,27.40
2018-02-08T03:45:38.890Z,26.93
2018-02-08T03:48:07.168Z,28.70
2018-02-08T03:50:34.689Z,28.50
2018-02-08T03:53:02.238Z,26.07
2018-02-08T03:55:30.554Z,25.27
2018-02-08T03:57:59.546Z,27.23
2018-02-08T04:00:27.861Z,26.53
2018-02-08T04:02:55.580Z,25.83
2018-02-08T04:05:23.143Z,29.87
2018-02-08T04:07:51.612Z,27.87
2018-02-08T04:10:19.151Z,28.13
2018-02-08T04:12:46.695Z,24.87
2018-02-08T04:15:14.242Z,26.47
2018-02-08T04:17:41.985Z,25.27
2018-02-08T04:20:09.528Z,28.17
2018-02-08T04:22:37.080Z,27.40
2018-02-08T04:25:04.598Z,25.30
2018-02-08T04:27:32.226Z,25.63
2018-02-08T04:30:00.536Z,27.90
2018-02-08T04:32:28.908Z,26.60
2018-02-08T04:34:56.631Z,28.77
2018-02-08T04:37:24.194Z,27.97
2018-02-08T04:40:03.645Z,24.30
2018-02-08T04:42:39.746Z,26.50
2018-02-08T04:45:19.216Z,27.53
2018-02-08T04:48:07.497Z,29.50
2018-02-08T04:50:35.035Z,29.37
2018-02-08T04:53:02.570Z,25.43
2018-02-08T04:55:30.118Z,27.37
2018-02-08T04:57:58.381Z,29.57
2018-02-08T05:00:25.892Z,26.70
2018-02-08T05:03:02.251Z,25.50
2018-02-08T05:05:29.792Z,27.23
2018-02-08T05:07:58.253Z,27.07
2018-02-08T05:10:25.817Z,23.67
2018-02-08T05:12:53.345Z,28.90
2018-02-08T05:15:21.626Z,26.10
2018-02-08T05:17:49.445Z,24.53
2018-02-08T05:20:17.233Z,28.80
2018-02-08T05:22:44.756Z,28.60
2018-02-08T05:25:12.296Z,26.63
2018-02-08T05:27:39.813Z,25.87
2018-02-08T05:30:08.091Z,27.93
2018-02-08T05:32:36.417Z,29.57
2018-02-08T05:35:03.939Z,24.90
2018-02-08T05:37:32.247Z,25.10
2018-02-08T05:39:59.802Z,26.30
2018-02-08T05:42:27.330Z,27.30
2018-02-08T05:44:55.794Z,26.93
2018-02-08T05:47:23.796Z,28.67
2018-02-08T05:49:51.334Z,28.70
2018-02-08T05:52:20.212Z,31.67
2018-02-08T05:54:47.765Z,28.60
2018-02-08T05:57:15.293Z,31.47
2018-02-08T05:59:42.814Z,28.27
2018-02-08T06:02:11.143Z,27.27
2018-02-08T06:04:38.673Z,30.63
2018-02-08T06:07:06.196Z,28.73
2018-02-08T06:09:33.875Z,25.63
2018-02-08T06:12:02.171Z,25.97
2018-02-08T06:14:29.711Z,25.40
2018-02-08T06:16:57.256Z,26.80
2018-02-08T06:19:25.024Z,31.07
2018-02-08T06:21:52.570Z,27.03
2018-02-08T06:24:20.144Z,27.87
2018-02-08T06:26:47.681Z,26.90
2018-02-08T06:29:15.196Z,25.93
2018-02-08T06:31:42.757Z,27.37
2018-02-08T06:34:10.305Z,26.70
2018-02-08T06:36:38.687Z,28.43
2018-02-08T06:39:06.239Z,25.27
2018-02-08T06:41:34.554Z,28.93
2018-02-08T06:44:02.065Z,24.87
2018-02-08T06:46:29.609Z,26.50
2018-02-08T06:48:57.145Z,25.60
2018-02-08T06:51:24.673Z,25.70
2018-02-08T06:53:52.234Z,25.53
2018-02-08T06:56:19.774Z,26.57
2018-02-08T06:58:47.441Z,28.20
2018-02-08T07:01:15.020Z,25.13
2018-02-08T07:03:42.555Z,28.30
2018-02-08T07:06:10.083Z,26.90
2018-02-08T07:08:37.642Z,23.50
2018-02-08T07:11:05.182Z,26.33
2018-02-08T07:13:32.738Z,27.40
2018-02-08T07:16:00.296Z,28.20
2018-02-08T07:18:28.208Z,25.37
2018-02-08T07:20:56.110Z,28.83
2018-02-08T07:23:24.461Z,25.83
2018-02-08T07:25:53.046Z,26.23
2018-02-08T07:28:20.579Z,26.27
2018-02-08T07:30:48.146Z,27.13
2018-02-08T07:33:15.729Z,27.77
2018-02-08T07:35:43.249Z,29.10
2018-02-08T07:38:10.825Z,29.85
2018-02-08T07:40:38.384Z,33.95
2018-02-08T07:43:05.993Z,31.33
2018-02-08T07:45:33.563Z,28.33
2018-02-08T07:48:01.746Z,30.48
2018-02-08T07:50:29.290Z,28.30
2018-02-08T07:52:56.873Z,29.50
2018-02-08T07:55:24.417Z,27.93
2018-02-08T07:57:51.962Z,26.30
2018-02-08T08:00:19.558Z,27.80
2018-02-08T08:02:47.088Z,31.07
2018-02-08T08:05:14.754Z,26.17
2018-02-08T08:07:43.072Z,26.77
2018-02-08T08:10:10.608Z,28.17
2018-02-08T08:12:38.350Z,29.07
2018-02-08T08:15:06.681Z,26.87
2018-02-08T08:17:34.214Z,28.45
2018-02-08T08:20:01.757Z,29.00
2018-02-08T08:22:29.674Z,27.07
2018-02-08T08:24:57.969Z,27.77
2018-02-08T08:27:26.239Z,29.60
2018-02-08T08:29:53.793Z,28.57
2018-02-08T08:32:21.317Z,25.20
2018-02-08T08:34:48.840Z,26.80
2018-02-08T08:37:17.210Z,26.10
2018-02-08T08:39:44.733Z,31.00
2018-02-08T08:42:14.462Z,31.03
2018-02-08T08:44:42.120Z,29.37
2018-02-08T08:47:09.659Z,32.67
2018-02-08T08:49:37.234Z,31.03
2018-02-08T08:52:04.814Z,26.93
2018-02-08T08:54:32.341Z,27.97
2018-02-08T08:56:59.877Z,30.10
2018-02-08T09:01:59.482Z,29.00
2018-02-08T09:04:40.025Z,29.73
2018-02-08T09:07:07.562Z,30.05
2018-02-08T09:09:35.094Z,30.75
2018-02-08T09:12:02.665Z,30.35
2018-02-08T09:14:30.417Z,27.15
2018-02-08T09:16:57.955Z,26.98
2018-02-08T09:19:26.288Z,25.77
2018-02-08T09:21:53.835Z,31.08
2018-02-08T09:24:21.869Z,28.70
2018-02-08T09:26:49.454Z,30.80
2018-02-08T09:29:16.982Z,28.43
2018-02-08T09:31:45.271Z,28.60
2018-02-08T09:34:12.856Z,29.27
2018-02-08T09:36:40.407Z,28.08
2018-02-08T09:39:07.936Z,28.67
2018-02-08T09:41:36.281Z,27.10
2018-02-08T09:44:03.852Z,30.53
2018-02-08T09:46:31.413Z,29.00
2018-02-08T09:48:59.267Z,30.07
2018-02-08T09:51:26.776Z,30.33
2018-02-08T09:53:55.064Z,29.13
2018-02-08T09:56:22.626Z,28.27
2018-02-08T09:58:50.155Z,30.90
2018-02-08T10:01:18.452Z,27.93
2018-02-08T10:03:46.775Z,29.93
2018-02-08T10:06:14.288Z,29.43
2018-02-08T10:08:43.145Z,27.80
2018-02-08T10:11:11.477Z,29.40
2018-02-08T10:13:39.013Z,28.83
2018-02-08T10:16:07.301Z,28.30
2018-02-08T10:18:34.840Z,28.13
2018-02-08T10:21:02.372Z,32.67
2018-02-08T10:23:29.903Z,30.30
2018-02-08T10:25:57.529Z,28.53
2018-02-08T10:28:26.512Z,29.83
2018-02-08T10:30:54.028Z,25.97
2018-02-08T10:33:21.662Z,30.40
2018-02-08T10:35:49.185Z,27.30
2018-02-08T10:38:16.982Z,27.50
2018-02-08T10:40:44.549Z,29.80
2018-02-08T10:43:12.072Z,30.47
2018-02-08T10:45:39.592Z,27.67
2018-02-08T10:48:07.189Z,30.40
2018-02-08T10:50:34.715Z,28.67
2018-02-08T10:53:02.228Z,29.90
2018-02-08T10:55:30.645Z,27.60
2018-02-08T10:57:58.170Z,29.30
2018-02-08T11:00:26.449Z,28.97
2018-02-08T11:02:54.814Z,30.40
2018-02-08T11:05:22.352Z,31.17
2018-02-08T11:07:49.886Z,27.73
2018-02-08T11:10:17.424Z,31.27
2018-02-08T11:12:44.932Z,29.50
2018-02-08T11:15:12.473Z,27.83
2018-02-08T11:17:40.020Z,26.83
2018-02-08T11:20:07.606Z,28.20
2018-02-08T11:22:35.134Z,29.37
2018-02-08T11:25:02.693Z,29.23
2018-02-08T11:27:30.426Z,27.57
2018-02-08T11:29:59.434Z,28.77
2018-02-08T11:32:27.763Z,26.90
2018-02-08T11:34:55.294Z,27.33
2018-02-08T11:37:22.911Z,29.10
2018-02-08T11:39:50.597Z,25.60
2018-02-08T11:42:18.134Z,25.20
2018-02-08T11:44:45.700Z,25.77
2018-02-08T11:47:13.252Z,25.67
2018-02-08T11:49:40.795Z,26.27
2018-02-08T11:52:08.597Z,25.67
2018-02-08T11:54:36.148Z,20.23
2018-02-08T11:57:04.459Z,22.77
2018-02-08T11:59:32.005Z,22.73
2018-02-08T12:01:59.678Z,21.70
2018-02-08T12:04:27.202Z,20.30
2018-02-08T12:06:54.733Z,22.37
2018-02-08T12:09:22.286Z,23.50
2018-02-08T12:11:49.809Z,21.27
2018-02-08T12:14:17.342Z,19.33
2018-02-08T12:16:44.912Z,19.40
2018-02-08T12:19:13.218Z,19.30
2018-02-08T12:21:40.740Z,17.50
2018-02-08T12:24:08.297Z,23.10
2018-02-08T12:26:35.835Z,22.67
2018-02-08T12:29:03.530Z,24.07
2018-02-08T12:31:31.852Z,20.30
2018-02-08T12:33:59.366Z,23.07
2018-02-08T12:36:27.652Z,20.83
2018-02-08T12:38:55.966Z,24.50
2018-02-08T12:41:23.691Z,24.87
2018-02-08T12:43:51.233Z,23.83
2018-02-08T12:46:18.848Z,24.77
2018-02-08T12:48:46.394Z,22.20
2018-02-08T12:51:13.912Z,20.07
2018-02-08T12:53:41.478Z,22.67
2018-02-08T12:56:09.001Z,21.13
2018-02-08T12:58:36.553Z,23.17
2018-02-08T13:01:04.106Z,23.93
2018-02-08T13:03:31.630Z,24.20
2018-02-08T13:06:00.140Z,24.50
2018-02-08T13:08:27.749Z,21.13
2018-02-08T13:10:56.637Z,23.33
2018-02-08T13:13:24.188Z,24.23
2018-02-08T13:15:51.736Z,23.67
2018-02-08T13:18:19.681Z,24.00
2018-02-08T13:20:47.585Z,28.07
2018-02-08T13:23:15.316Z,25.63
2018-02-08T13:25:42.834Z,27.37
2018-02-08T13:28:10.358Z,24.30
2018-02-08T13:30:38.743Z,25.70
2018-02-08T13:33:06.279Z,26.60
2018-02-08T13:35:33.846Z,25.80
2018-02-08T13:38:02.244Z,26.43
2018-02-08T13:40:46.559Z,25.50
2018-02-08T13:43:14.125Z,27.57
2018-02-08T13:45:42.125Z,24.90
2018-02-08T13:48:24.636Z,26.17
2018-02-08T14:04:24.797Z,26.67
2018-02-08T14:06:53.133Z,24.73
2018-02-08T14:09:20.655Z,25.47
2018-02-08T14:11:48.222Z,25.87
2018-02-08T14:14:16.067Z,29.03
2018-02-08T14:16:43.654Z,28.77
2018-02-08T14:19:11.204Z,28.43
2018-02-08T14:21:38.726Z,24.57
2018-02-08T14:24:06.245Z,24.63
2018-02-08T14:26:33.905Z,29.30
2018-02-08T14:29:01.437Z,26.67
2018-02-08T14:31:29.289Z,26.40
2018-02-08T14:33:57.193Z,24.80
2018-02-08T14:36:24.715Z,27.73
2018-02-08T14:38:52.257Z,27.10
2018-02-08T14:41:19.814Z,26.33
2018-02-08T14:43:47.339Z,24.23
2018-02-08T14:46:14.856Z,25.30
2018-02-08T14:48:42.990Z,27.70
2018-02-08T14:51:10.677Z,24.30
2018-02-08T14:53:38.195Z,26.87
2018-02-08T14:56:05.733Z,24.40
2018-02-08T14:58:33.253Z,25.37
2018-02-08T15:01:00.980Z,27.03
2018-02-08T15:03:28.557Z,30.03
2018-02-08T15:05:56.840Z,29.40
2018-02-08T15:08:25.049Z,25.60
2018-02-08T15:10:52.625Z,25.00
2018-02-08T15:13:20.161Z,25.10
2018-02-08T15:15:47.806Z,27.93
2018-02-08T15:18:15.380Z,24.43
2018-02-08T15:20:42.910Z,27.87
2018-02-08T15:23:10.452Z,28.07
2018-02-08T15:25:39.005Z,27.10
2018-02-08T15:28:07.723Z,28.60
2018-02-08T15:30:35.250Z,31.17
2018-02-08T15:33:15.754Z,27.97
2018-02-08T15:35:44.304Z,28.37
2018-02-08T15:44:18.202Z,26.70
2018-02-08T15:46:45.850Z,30.70
2018-02-08T15:49:14.489Z,29.93
2018-02-08T15:51:43.093Z,26.87
2018-02-08T15:54:11.884Z,28.07
2018-02-08T15:56:40.266Z,28.50
2018-02-08T15:59:08.138Z,30.10
2018-02-08T16:01:37.824Z,31.00
2018-02-08T16:04:05.465Z,28.33
2018-02-08T16:06:33.086Z,28.97
2018-02-08T16:09:00.871Z,26.90
2018-02-08T16:11:28.517Z,27.37
2018-02-08T16:13:56.496Z,28.17
2018-02-08T16:16:24.031Z,26.73
2018-02-08T16:18:51.655Z,29.00
2018-02-08T16:21:19.661Z,26.83
2018-02-08T16:23:47.244Z,29.70
2018-02-08T16:26:15.102Z,28.93
2018-02-08T16:28:43.488Z,30.67
2018-02-08T16:31:11.487Z,26.70
2018-02-08T16:33:40.193Z,29.37
2018-02-08T16:36:08.834Z,27.40
2018-02-08T16:38:36.520Z,26.47
2018-02-08T16:41:04.232Z,28.90
2018-02-08T16:43:31.958Z,27.00
2018-02-08T16:45:59.912Z,28.20
2018-02-08T16:48:27.734Z,28.00
2018-02-08T16:50:55.297Z,29.80
2018-02-08T16:53:22.845Z,29.13
2018-02-08T16:55:51.364Z,29.40
2018-02-08T16:58:18.969Z,30.57
2018-02-08T17:00:46.709Z,30.60
2018-02-08T17:03:14.509Z,30.33
2018-02-08T17:05:42.531Z,27.90
2018-02-08T17:08:10.054Z,28.70
2018-02-08T17:10:47.619Z,29.97
2018-02-08T17:13:15.163Z,27.50
2018-02-08T17:15:42.886Z,30.27
2018-02-08T17:18:10.717Z,31.83
2018-02-08T17:20:38.502Z,30.97
2018-02-08T17:23:06.985Z,30.30
2018-02-08T17:25:35.632Z,34.43
2018-02-08T17:28:03.161Z,30.37
2018-02-08T17:30:30.687Z,30.97
2018-02-08T17:32:58.386Z,30.57
2018-02-08T17:35:26.756Z,33.60
2018-02-08T17:37:54.315Z,28.93
2018-02-08T17:40:21.874Z,28.90
2018-02-08T17:42:49.400Z,32.97
2018-02-08T17:45:16.928Z,30.37
2018-02-08T17:47:44.496Z,33.03
2018-02-08T17:50:12.019Z,32.10
2018-02-08T17:52:39.546Z,32.53
2018-02-08T17:55:07.979Z,29.03
2018-02-08T17:57:35.701Z,32.30
2018-02-08T18:00:04.038Z,32.43
2018-02-08T18:02:31.645Z,33.37
2018-02-08T18:04:59.185Z,32.20
2018-02-08T18:07:26.725Z,31.53
2018-02-08T18:09:54.284Z,33.00
2018-02-08T18:12:21.948Z,30.70
2018-02-08T18:14:49.508Z,32.30
2018-02-08T18:17:17.644Z,32.97
2018-02-08T18:19:45.173Z,30.60
2018-02-08T18:22:13.743Z,34.13
2018-02-08T18:24:41.319Z,32.03
2018-02-08T18:27:09.001Z,33.47
2018-02-08T18:29:39.560Z,30.33
2018-02-08T18:32:07.114Z,32.27
2018-02-08T18:34:34.651Z,31.20
2018-02-08T18:37:02.486Z,31.03
2018-02-08T18:39:30.930Z,29.90
2018-02-08T18:42:01.650Z,33.00
2018-02-08T18:44:29.179Z,31.90
2018-02-08T18:46:56.900Z,32.10
2018-02-08T18:49:24.637Z,31.00
2018-02-08T18:51:52.193Z,31.03
2018-02-08T18:54:19.740Z,30.90
2018-02-08T18:56:47.269Z,32.70
2018-02-08T18:59:14.789Z,30.40
2018-02-08T19:01:42.429Z,32.50
2018-02-08T19:04:09.948Z,30.60
2018-02-08T19:06:37.470Z,34.03
2018-02-08T19:09:05.020Z,30.50
2018-02-08T19:11:32.742Z,31.30
2018-02-08T19:14:01.038Z,30.50
2018-02-08T19:16:28.809Z,31.93
2018-02-08T19:18:56.331Z,31.80
2018-02-08T19:21:23.986Z,33.30
2018-02-08T19:23:51.604Z,31.37
2018-02-08T19:26:19.140Z,34.33
2018-02-08T19:28:47.423Z,31.40
2018-02-08T19:31:15.548Z,32.90
2018-02-08T19:33:43.259Z,33.10
2018-02-08T19:36:10.983Z,33.77
2018-02-08T19:38:39.489Z,30.60
2018-02-08T19:41:07.829Z,31.47
2018-02-08T19:43:35.358Z,31.90
2018-02-08T19:46:03.018Z,31.10
2018-02-08T19:48:30.555Z,31.70
2018-02-08T19:50:58.851Z,30.50
2018-02-08T19:53:26.452Z,31.33
2018-02-08T19:55:54.057Z,29.90
2018-02-08T19:58:21.720Z,32.50
2018-02-08T20:00:50.416Z,30.20
2018-02-08T20:03:18.011Z,34.50
2018-02-08T20:05:45.632Z,29.17
2018-02-08T20:08:14.034Z,29.53
2018-02-08T20:10:41.711Z,33.37
2018-02-08T20:13:09.255Z,28.33
2018-02-08T20:15:37.272Z,34.00
2018-02-08T20:18:04.878Z,30.40
2018-02-08T20:20:32.570Z,33.00
2018-02-08T20:23:00.949Z,33.60
2018-02-08T20:25:49.274Z,29.77
2018-02-08T20:28:16.916Z,29.70
2018-02-08T20:30:50.158Z,32.77
2018-02-08T20:33:17.698Z,30.97
2018-02-08T20:35:45.266Z,28.97
2018-02-08T20:38:12.949Z,28.90
2018-02-08T20:40:40.979Z,33.13
2018-02-08T20:43:14.174Z,31.77
2018-02-08T20:45:41.782Z,32.37
2018-02-08T20:48:09.751Z,30.00
2018-02-08T20:50:37.558Z,35.73
2018-02-08T20:53:05.845Z,32.60
2018-02-08T20:55:33.562Z,30.47
2018-02-08T20:58:01.118Z,30.13
2018-02-08T21:00:28.637Z,29.03
2018-02-08T21:02:56.167Z,31.97
2018-02-08T21:05:23.893Z,28.97
2018-02-08T21:07:51.454Z,32.00
2018-02-08T21:10:19.773Z,31.50
2018-02-08T21:12:48.150Z,31.37
2018-02-08T21:15:16.480Z,31.57
2018-02-08T21:17:44.006Z,33.47
2018-02-08T21:20:11.774Z,30.67
2018-02-08T21:22:39.617Z,29.90
2018-02-08T21:25:07.264Z,32.00
2018-02-08T21:27:34.845Z,31.40
2018-02-08T21:30:03.146Z,31.10
2018-02-08T21:32:30.780Z,29.63
2018-02-08T21:34:58.341Z,31.97
2018-02-08T21:37:26.628Z,33.20
2018-02-08T21:39:54.930Z,32.53
2018-02-08T21:42:22.915Z,33.30
2018-02-08T21:44:50.448Z,35.10
2018-02-08T21:47:17.992Z,30.13
2018-02-08T21:49:45.547Z,31.47
2018-02-08T21:52:13.067Z,34.73
2018-02-08T21:54:40.690Z,31.07
2018-02-08T21:57:08.249Z,31.50
2018-02-08T21:59:35.779Z,32.60
2018-02-08T22:02:04.205Z,30.93
2018-02-08T22:04:31.774Z,30.97
2018-02-08T22:06:59.322Z,32.60
2018-02-08T22:09:26.854Z,27.70
2018-02-08T22:11:54.436Z,34.53
2018-02-08T22:14:21.989Z,34.07
2018-02-08T22:16:49.663Z,32.57
2018-02-08T22:19:17.237Z,31.57
2018-02-08T22:21:44.776Z,32.17
2018-02-08T22:24:12.310Z,33.80
2018-02-08T22:26:40.348Z,34.23
2018-02-08T22:29:07.876Z,31.60
2018-02-08T22:31:35.398Z,35.37
2018-02-08T22:34:02.956Z,32.27
2018-02-08T22:36:30.530Z,31.27
2018-02-08T22:38:58.184Z,33.17
2018-02-08T22:41:25.737Z,31.23
2018-02-08T22:43:53.510Z,31.87
2018-02-08T22:46:21.047Z,31.17
2018-02-08T22:48:48.621Z,35.27
2018-02-08T22:51:16.149Z,32.40
2018-02-08T22:53:43.694Z,32.17
2018-02-08T22:56:11.249Z,31.57
2018-02-08T22:58:38.785Z,35.47
2018-02-08T23:01:07.154Z,33.80
2018-02-08T23:03:34.761Z,30.27
2018-02-08T23:06:02.290Z,32.30
2018-02-08T23:08:29.811Z,35.70
2018-02-08T23:10:57.363Z,30.97
2018-02-08T23:13:24.916Z,33.07
2018-02-08T23:15:52.450Z,31.87
2018-02-08T23:18:20.030Z,32.37
2018-02-08T23:20:48.317Z,31.63
2018-02-08T23:23:15.901Z,34.27
2018-02-08T23:25:43.448Z,30.87
2018-02-08T23:28:11.054Z,30.90
2018-02-08T23:30:38.586Z,31.07
2018-02-08T23:33:06.153Z,35.70
2018-02-08T23:35:34.601Z,30.20
2018-02-08T23:38:02.150Z,29.47
2018-02-08T23:40:29.716Z,34.00
2018-02-08T23:42:57.247Z,29.43
2018-02-08T23:45:25.921Z,31.73
2018-02-08T23:47:53.481Z,32.27
2018-02-08T23:50:21.019Z,33.60
2018-02-08T23:52:49.312Z,35.73
2018-02-08T23:55:17.620Z,30.70
2018-02-08T23:57:45.147Z,31.80
